createdAt,value
2023-04-26T00:01:10.276Z,416.42
2023-04-26T00:03:36.801Z,408.30
2023-04-26T00:06:03.574Z,396.27
2023-04-26T00:08:30.000Z,404.55
2023-04-26T00:10:56.447Z,398.30
2023-04-26T00:13:22.870Z,393.42
2023-04-26T00:15:49.372Z,385.60
2023-04-26T00:18:15.821Z,378.10
2023-04-26T00:20:42.161Z,372.27
2023-04-26T00:23:08.725Z,373.50
2023-04-26T00:25:35.166Z,370.33
2023-04-26T00:28:01.526Z,364.17
2023-04-26T00:30:27.909Z,351.20
2023-04-26T00:32:54.227Z,354.58
2023-04-26T00:35:20.538Z,340.02
2023-04-26T00:37:46.864Z,344.00
2023-04-26T00:40:13.180Z,336.55
2023-04-26T00:42:39.502Z,329.40
2023-04-26T00:45:05.766Z,328.90
2023-04-26T00:47:32.239Z,304.42
2023-04-26T00:49:58.590Z,310.50
2023-04-26T00:52:24.881Z,301.10
2023-04-26T00:54:51.422Z,312.75
2023-04-26T00:57:17.873Z,286.27
2023-04-26T00:59:44.239Z,293.13
2023-04-26T01:02:10.634Z,286.95
2023-04-26T01:04:40.008Z,278.65
2023-04-26T01:07:07.046Z,270.67
2023-04-26T01:09:37.069Z,274.70
2023-04-26T01:12:04.289Z,274.45
2023-04-26T01:14:30.947Z,268.95
2023-04-26T01:16:57.909Z,262.55
2023-04-26T01:19:25.806Z,258.00
2023-04-26T01:21:53.393Z,250.48
2023-04-26T01:24:20.003Z,252.43
2023-04-26T01:26:47.725Z,243.45
2023-04-26T01:29:15.792Z,232.70
2023-04-26T01:31:42.066Z,241.77
2023-04-26T01:34:08.489Z,236.70
2023-04-26T01:36:34.773Z,232.23
2023-04-26T01:39:01.094Z,231.57
2023-04-26T01:41:27.679Z,229.00
2023-04-26T01:43:54.076Z,220.90
2023-04-26T01:46:20.717Z,212.60
2023-04-26T01:48:47.107Z,213.85
2023-04-26T01:51:13.482Z,214.30
2023-04-26T01:53:39.791Z,201.70
2023-04-26T01:56:06.237Z,204.75
2023-04-26T01:58:32.551Z,203.80
2023-04-26T02:00:59.136Z,195.82
2023-04-26T02:03:25.595Z,194.55
2023-04-26T02:05:52.136Z,192.90
2023-04-26T02:08:18.475Z,179.45
2023-04-26T02:10:45.027Z,181.82
2023-04-26T02:13:11.366Z,171.88
2023-04-26T02:15:38.254Z,175.00
2023-04-26T02:18:05.388Z,177.43
2023-04-26T02:20:31.892Z,172.15
2023-04-26T02:22:58.628Z,177.57
2023-04-26T02:25:24.964Z,164.52
2023-04-26T02:27:51.355Z,165.05
2023-04-26T02:30:18.173Z,161.68
2023-04-26T02:32:45.786Z,159.93
2023-04-26T02:35:12.392Z,156.80
2023-04-26T02:37:38.715Z,145.98
2023-04-26T02:40:05.493Z,152.25
2023-04-26T02:42:32.014Z,147.85
2023-04-26T02:44:58.544Z,142.77
2023-04-26T02:47:25.270Z,143.88
2023-04-26T02:49:51.658Z,131.50
2023-04-26T02:52:17.990Z,133.93
2023-04-26T02:54:44.321Z,138.07
2023-04-26T02:57:10.733Z,134.80
2023-04-26T02:59:37.226Z,130.07
2023-04-26T03:02:03.664Z,121.35
2023-04-26T03:04:30.068Z,124.40
2023-04-26T03:06:56.359Z,123.55
2023-04-26T03:09:23.150Z,120.32
2023-04-26T03:11:50.334Z,114.60
2023-04-26T03:14:16.703Z,118.75
2023-04-26T03:16:43.245Z,115.90
2023-04-26T03:19:09.862Z,108.78
2023-04-26T03:21:36.268Z,115.15
2023-04-26T03:24:02.700Z,110.97
2023-04-26T03:26:29.397Z,108.43
2023-04-26T03:28:55.946Z,104.45
2023-04-26T03:31:22.310Z,105.05
2023-04-26T03:33:48.618Z,108.85
2023-04-26T03:36:15.312Z,103.68
2023-04-26T03:38:41.726Z,99.38
2023-04-26T03:41:08.424Z,96.22
2023-04-26T03:43:35.322Z,99.32
2023-04-26T03:46:01.785Z,96.93
2023-04-26T03:48:28.197Z,95.18
2023-04-26T03:50:54.543Z,93.88
2023-04-26T03:53:21.098Z,88.30
2023-04-26T03:55:47.455Z,90.10
2023-04-26T03:58:13.753Z,86.93
2023-04-26T04:00:40.211Z,87.13
2023-04-26T04:03:07.043Z,85.43
2023-04-26T04:05:33.922Z,83.88
2023-04-26T04:08:00.405Z,83.93
2023-04-26T04:10:27.021Z,79.88
2023-04-26T04:12:53.535Z,78.55
2023-04-26T04:15:19.941Z,78.13
2023-04-26T04:17:46.359Z,77.45
2023-04-26T04:20:13.151Z,75.75
2023-04-26T04:22:39.510Z,74.72
2023-04-26T04:25:05.890Z,72.28
2023-04-26T04:27:32.220Z,70.63
2023-04-26T04:29:58.645Z,71.07
2023-04-26T04:32:25.347Z,73.20
2023-04-26T04:34:52.029Z,71.70
2023-04-26T04:37:18.791Z,67.50
2023-04-26T04:39:45.190Z,65.10
2023-04-26T04:42:11.492Z,67.70
2023-04-26T04:44:37.858Z,66.90
2023-04-26T04:47:04.235Z,65.75
2023-04-26T04:49:30.738Z,64.20
2023-04-26T04:51:57.235Z,58.50
2023-04-26T04:54:23.530Z,61.08
2023-04-26T04:56:51.026Z,61.83
2023-04-26T04:59:17.332Z,58.78
2023-04-26T05:01:43.777Z,60.15
2023-04-26T05:04:10.912Z,57.45
2023-04-26T05:06:37.448Z,55.38
2023-04-26T05:09:05.345Z,52.80
2023-04-26T05:11:31.721Z,53.40
2023-04-26T05:13:58.838Z,52.60
2023-04-26T05:16:25.443Z,46.75
2023-04-26T05:18:51.970Z,32.90
2023-04-26T05:21:18.302Z,35.65
2023-04-26T05:23:44.805Z,33.83
2023-04-26T05:26:11.212Z,33.05
2023-04-26T05:28:37.503Z,31.00
2023-04-26T05:31:03.870Z,33.88
2023-04-26T05:33:30.211Z,33.05
2023-04-26T05:35:56.886Z,35.53
2023-04-26T05:38:23.651Z,33.22
2023-04-26T05:40:50.319Z,34.50
2023-04-26T05:43:17.830Z,34.20
2023-04-26T05:45:45.069Z,32.95
2023-04-26T05:48:11.803Z,33.67
2023-04-26T05:50:39.993Z,34.85
2023-04-26T05:53:06.492Z,34.30
2023-04-26T05:55:32.804Z,32.72
2023-04-26T05:58:01.181Z,31.15
2023-04-26T06:00:28.199Z,36.72
2023-04-26T06:02:55.069Z,38.13
2023-04-26T06:05:21.645Z,37.65
2023-04-26T06:07:48.462Z,37.10
2023-04-26T06:10:14.767Z,40.65
2023-04-26T06:12:41.314Z,38.17
2023-04-26T06:15:08.047Z,36.92
2023-04-26T06:17:34.513Z,42.67
2023-04-26T06:20:00.918Z,40.92
2023-04-26T06:22:27.687Z,43.70
2023-04-26T06:24:54.025Z,39.63
2023-04-26T06:27:20.466Z,40.75
2023-04-26T06:29:47.118Z,35.95
2023-04-26T06:32:13.502Z,41.15
2023-04-26T06:34:39.904Z,35.55
2023-04-26T06:37:06.280Z,38.15
2023-04-26T06:39:32.946Z,36.72
2023-04-26T06:41:59.697Z,34.47
2023-04-26T06:44:26.348Z,37.63
2023-04-26T06:46:53.258Z,36.00
2023-04-26T06:49:19.748Z,32.05
2023-04-26T06:51:46.452Z,31.42
2023-04-26T06:54:13.149Z,31.80
2023-04-26T06:56:39.712Z,31.40
2023-04-26T06:59:06.333Z,35.20
2023-04-26T07:01:32.698Z,28.58
2023-04-26T07:03:59.585Z,35.42
2023-04-26T07:06:26.114Z,35.03
2023-04-26T07:08:52.733Z,38.65
2023-04-26T07:11:20.232Z,45.35
2023-04-26T07:13:47.116Z,38.75
2023-04-26T07:16:13.604Z,39.10
2023-04-26T07:18:40.010Z,40.28
2023-04-26T07:21:06.294Z,37.17
2023-04-26T07:23:32.668Z,37.85
2023-04-26T07:25:59.990Z,39.50
2023-04-26T07:28:26.297Z,44.97
2023-04-26T07:30:52.744Z,47.13
2023-04-26T07:33:19.405Z,45.83
2023-04-26T07:35:45.809Z,49.03
2023-04-26T07:38:12.376Z,49.78
2023-04-26T07:40:38.815Z,55.10
2023-04-26T07:43:05.175Z,50.75
2023-04-26T07:45:31.851Z,45.35
2023-04-26T07:47:58.394Z,45.75
2023-04-26T07:50:24.799Z,40.53
2023-04-26T07:52:51.414Z,40.05
2023-04-26T07:55:17.938Z,39.70
2023-04-26T07:57:44.605Z,39.45
2023-04-26T08:00:10.977Z,40.70
2023-04-26T08:02:44.003Z,42.88
2023-04-26T08:05:11.325Z,39.22
2023-04-26T08:07:38.971Z,43.13
2023-04-26T08:10:05.412Z,43.17
2023-04-26T08:12:32.185Z,35.60
2023-04-26T08:14:58.923Z,38.80
2023-04-26T08:17:25.317Z,35.70
2023-04-26T08:19:52.016Z,41.60
2023-04-26T08:22:18.288Z,39.25
2023-04-26T08:24:44.756Z,37.53
2023-04-26T08:27:11.145Z,33.53
2023-04-26T08:29:37.580Z,35.22
2023-04-26T08:32:03.969Z,40.20
2023-04-26T08:34:30.322Z,45.90
2023-04-26T08:36:56.761Z,41.35
2023-04-26T08:39:23.336Z,41.83
2023-04-26T08:41:49.722Z,38.53
2023-04-26T08:44:16.204Z,38.22
2023-04-26T08:46:42.689Z,39.83
2023-04-26T08:49:10.185Z,42.70
2023-04-26T08:51:36.497Z,40.10
2023-04-26T08:54:04.767Z,37.53
2023-04-26T08:56:31.339Z,33.17
2023-04-26T08:58:57.719Z,39.30
2023-04-26T09:01:24.406Z,37.45
2023-04-26T09:03:51.280Z,34.35
2023-04-26T09:06:18.367Z,37.47
2023-04-26T09:08:45.111Z,29.75
2023-04-26T09:11:11.478Z,35.17
2023-04-26T09:13:37.778Z,32.38
2023-04-26T09:16:05.292Z,32.33
2023-04-26T09:18:31.724Z,37.33
2023-04-26T09:20:58.124Z,37.35
2023-04-26T09:23:24.463Z,33.00
2023-04-26T09:25:50.974Z,32.13
2023-04-26T09:28:17.283Z,26.30
2023-04-26T09:30:43.660Z,27.85
2023-04-26T09:33:10.212Z,30.05
2023-04-26T09:35:37.929Z,30.85
2023-04-26T09:38:09.640Z,30.92
2023-04-26T09:40:38.320Z,32.60
2023-04-26T09:43:04.708Z,28.48
2023-04-26T09:45:31.104Z,32.13
2023-04-26T09:47:57.449Z,34.97
2023-04-26T09:50:23.782Z,30.75
2023-04-26T09:52:50.119Z,27.45
2023-04-26T09:55:31.193Z,24.65
2023-04-26T09:58:01.096Z,27.50
2023-04-26T10:00:27.372Z,24.02
2023-04-26T10:02:53.873Z,25.52
2023-04-26T10:05:20.221Z,27.10
2023-04-26T10:07:46.712Z,26.25
2023-04-26T10:10:13.181Z,24.05
2023-04-26T10:12:39.494Z,18.65
2023-04-26T10:15:05.839Z,21.08
2023-04-26T10:17:32.182Z,19.80
2023-04-26T10:19:59.132Z,21.05
2023-04-26T10:22:25.598Z,20.58
2023-04-26T10:24:52.607Z,21.83
2023-04-26T10:27:19.134Z,19.63
2023-04-26T10:29:45.440Z,19.27
2023-04-26T10:32:12.222Z,21.55
2023-04-26T10:34:38.665Z,19.92
2023-04-26T10:37:05.252Z,21.45
2023-04-26T10:39:31.928Z,18.20
2023-04-26T10:41:59.372Z,18.23
2023-04-26T10:44:25.680Z,17.77
2023-04-26T10:46:52.218Z,16.05
2023-04-26T10:49:18.665Z,17.98
2023-04-26T10:51:45.388Z,22.60
2023-04-26T10:54:11.871Z,20.63
2023-04-26T10:56:38.360Z,22.08
2023-04-26T10:59:06.337Z,22.65
2023-04-26T11:01:40.601Z,20.73
2023-04-26T11:04:07.147Z,17.58
2023-04-26T11:06:33.958Z,19.40
2023-04-26T11:09:00.281Z,20.83
2023-04-26T11:11:26.875Z,25.52
2023-04-26T11:13:53.858Z,18.58
2023-04-26T11:16:20.366Z,22.65
2023-04-26T11:18:46.995Z,25.92
2023-04-26T11:21:13.292Z,19.15
2023-04-26T11:23:39.706Z,20.08
2023-04-26T11:26:06.035Z,17.42
2023-04-26T11:28:34.327Z,17.50
2023-04-26T11:31:01.216Z,18.48
2023-04-26T11:33:27.786Z,17.25
2023-04-26T11:35:54.124Z,17.58
2023-04-26T11:38:20.626Z,16.05
2023-04-26T11:40:47.185Z,15.60
2023-04-26T11:43:13.738Z,15.20
2023-04-26T11:45:40.156Z,13.38
2023-04-26T11:48:06.856Z,17.35
2023-04-26T11:50:33.170Z,17.27
2023-04-26T11:52:59.551Z,13.73
2023-04-26T11:55:26.043Z,13.15
2023-04-26T11:57:52.380Z,16.35
2023-04-26T12:00:18.952Z,19.17
2023-04-26T12:02:45.523Z,16.42
2023-04-26T12:05:12.078Z,13.50
2023-04-26T12:07:38.597Z,14.85
2023-04-26T12:10:05.313Z,10.85
2023-04-26T12:12:31.617Z,10.88
2023-04-26T12:14:58.017Z,12.55
2023-04-26T12:17:26.046Z,11.88
2023-04-26T12:19:52.507Z,12.90
2023-04-26T12:22:18.831Z,10.88
2023-04-26T12:24:45.351Z,12.65
2023-04-26T12:27:11.745Z,13.20
2023-04-26T12:29:39.341Z,14.73
2023-04-26T12:32:06.161Z,14.20
2023-04-26T12:34:32.963Z,10.70
2023-04-26T12:36:59.597Z,15.40
2023-04-26T12:39:26.150Z,12.30
2023-04-26T12:41:52.863Z,11.40
2023-04-26T12:44:21.389Z,13.15
2023-04-26T12:46:48.754Z,13.23
2023-04-26T12:49:15.168Z,15.45
2023-04-26T12:51:41.766Z,13.43
2023-04-26T12:54:08.415Z,14.30
2023-04-26T12:56:34.934Z,16.02
2023-04-26T12:59:01.693Z,15.15
2023-04-26T13:01:28.044Z,11.50
2023-04-26T13:03:54.594Z,16.42
2023-04-26T13:06:21.118Z,12.45
2023-04-26T13:08:47.511Z,12.88
2023-04-26T13:11:14.212Z,14.57
2023-04-26T13:13:44.383Z,12.80
2023-04-26T13:16:11.435Z,11.13
2023-04-26T13:18:38.548Z,14.10
2023-04-26T13:21:05.376Z,13.38
2023-04-26T13:23:31.882Z,12.48
2023-04-26T13:25:58.362Z,13.10
2023-04-26T13:28:24.744Z,14.68
2023-04-26T13:30:51.044Z,12.73
2023-04-26T13:33:17.693Z,16.27
2023-04-26T13:35:44.138Z,13.38
2023-04-26T13:38:10.649Z,11.70
2023-04-26T13:40:36.918Z,11.20
2023-04-26T13:43:04.459Z,13.65
2023-04-26T13:45:30.939Z,10.18
2023-04-26T13:47:57.419Z,12.10
2023-04-26T13:50:24.139Z,11.20
2023-04-26T13:52:50.455Z,9.23
2023-04-26T13:55:16.982Z,12.43
2023-04-26T13:57:43.844Z,12.13
2023-04-26T14:00:10.274Z,10.43
2023-04-26T14:02:36.771Z,11.60
2023-04-26T14:05:03.661Z,9.63
2023-04-26T14:07:30.433Z,12.05
2023-04-26T14:09:56.713Z,8.57
2023-04-26T14:12:23.239Z,9.93
2023-04-26T14:14:49.668Z,7.13
2023-04-26T14:17:15.958Z,9.82
2023-04-26T14:19:42.363Z,9.65
2023-04-26T14:22:09.110Z,10.23
2023-04-26T14:24:35.639Z,9.27
2023-04-26T14:27:01.948Z,10.65
2023-04-26T14:29:28.268Z,10.93
2023-04-26T14:31:54.965Z,9.98
2023-04-26T14:34:21.304Z,9.18
2023-04-26T14:36:47.802Z,9.02
2023-04-26T14:39:14.108Z,8.40
2023-04-26T14:41:40.806Z,9.02
2023-04-26T14:44:08.102Z,8.13
2023-04-26T14:46:34.716Z,8.82
2023-04-26T14:49:01.309Z,8.40
2023-04-26T14:51:27.809Z,9.40
2023-04-26T14:53:54.318Z,12.68
2023-04-26T14:56:20.830Z,7.78
2023-04-26T14:58:47.107Z,8.10
2023-04-26T15:01:13.717Z,9.60
2023-04-26T15:03:40.436Z,10.88
2023-04-26T15:06:06.798Z,8.18
2023-04-26T15:08:33.125Z,9.00
2023-04-26T15:10:59.446Z,7.93
2023-04-26T15:13:25.808Z,12.13
2023-04-26T15:15:52.204Z,9.48
2023-04-26T15:18:18.627Z,7.93
2023-04-26T15:20:44.971Z,7.18
2023-04-26T15:23:11.375Z,7.93
2023-04-26T15:25:37.800Z,8.82
2023-04-26T15:28:04.127Z,7.88
2023-04-26T15:30:30.479Z,9.20
2023-04-26T15:32:58.400Z,8.20
2023-04-26T15:35:25.317Z,7.40
2023-04-26T15:37:51.706Z,7.50
2023-04-26T15:40:18.022Z,7.40
2023-04-26T15:42:44.456Z,8.63
2023-04-26T15:45:11.384Z,8.55
2023-04-26T15:47:37.702Z,7.28
2023-04-26T15:50:04.052Z,10.15
2023-04-26T15:52:30.347Z,7.35
2023-04-26T15:54:57.002Z,9.43
2023-04-26T15:57:23.415Z,6.63
2023-04-26T15:59:50.234Z,8.38
2023-04-26T16:02:17.139Z,7.93
2023-04-26T16:04:43.843Z,7.70
2023-04-26T16:07:10.367Z,10.70
2023-04-26T16:09:36.662Z,8.05
2023-04-26T16:12:03.217Z,8.20
2023-04-26T16:14:29.502Z,7.43
2023-04-26T16:16:55.941Z,8.27
2023-04-26T16:19:22.913Z,7.43
2023-04-26T16:21:49.446Z,9.13
2023-04-26T16:24:15.743Z,6.90
2023-04-26T16:26:42.477Z,7.32
2023-04-26T16:29:08.817Z,8.35
2023-04-26T16:31:35.438Z,8.60
2023-04-26T16:34:01.748Z,9.05
2023-04-26T16:36:28.275Z,7.75
2023-04-26T16:38:54.734Z,6.88
2023-04-26T16:41:21.212Z,7.47
2023-04-26T16:43:47.589Z,6.68
2023-04-26T16:46:14.011Z,7.20
2023-04-26T16:48:40.315Z,7.88
2023-04-26T16:51:07.805Z,8.82
2023-04-26T16:53:36.056Z,6.80
2023-04-26T16:56:02.720Z,7.97
2023-04-26T16:58:29.083Z,7.55
2023-04-26T17:00:55.442Z,8.38
2023-04-26T17:03:22.092Z,8.60
2023-04-26T17:05:48.830Z,7.00
2023-04-26T17:08:15.510Z,7.55
2023-04-26T17:10:41.813Z,8.07
2023-04-26T17:13:08.228Z,7.47
2023-04-26T17:15:34.976Z,7.78
2023-04-26T17:18:01.436Z,7.07
2023-04-26T17:20:27.942Z,8.00
2023-04-26T17:22:54.357Z,8.05
2023-04-26T17:25:20.715Z,8.57
2023-04-26T17:27:47.864Z,6.88
2023-04-26T17:30:14.448Z,7.72
2023-04-26T17:32:40.844Z,7.57
2023-04-26T17:35:07.499Z,8.40
2023-04-26T17:37:33.893Z,8.00
2023-04-26T17:40:00.356Z,7.18
2023-04-26T17:42:27.097Z,7.60
2023-04-26T17:44:53.700Z,6.47
2023-04-26T17:47:20.254Z,8.07
2023-04-26T17:49:46.610Z,9.00
2023-04-26T17:52:12.932Z,7.18
2023-04-26T17:54:39.416Z,6.65
2023-04-26T17:57:05.872Z,9.23
2023-04-26T17:59:32.197Z,8.00
2023-04-26T18:01:58.713Z,6.60
2023-04-26T18:04:25.321Z,8.48
2023-04-26T18:06:52.259Z,7.95
2023-04-26T18:09:18.704Z,7.75
2023-04-26T18:11:45.494Z,8.05
2023-04-26T18:14:12.311Z,7.82
2023-04-26T18:16:39.063Z,7.88
2023-04-26T18:19:05.679Z,9.80
2023-04-26T18:21:32.025Z,6.25
2023-04-26T18:23:58.757Z,6.43
2023-04-26T18:26:25.178Z,6.43
2023-04-26T18:28:51.849Z,6.70
2023-04-26T18:31:18.170Z,6.10
2023-04-26T18:33:44.728Z,8.10
2023-04-26T18:36:11.233Z,9.07
2023-04-26T18:38:37.709Z,6.25
2023-04-26T18:41:05.300Z,7.75
2023-04-26T18:43:31.872Z,9.68
2023-04-26T18:45:58.579Z,7.25
2023-04-26T18:48:24.908Z,6.57
2023-04-26T18:50:51.360Z,9.30
2023-04-26T18:53:18.182Z,7.10
2023-04-26T18:55:44.602Z,6.90
2023-04-26T18:58:11.125Z,7.40
2023-04-26T19:00:37.498Z,6.18
2023-04-26T19:03:04.200Z,7.32
2023-04-26T19:05:30.611Z,6.47
2023-04-26T19:07:57.171Z,7.63
2023-04-26T19:10:23.466Z,8.00
2023-04-26T19:12:50.170Z,7.22
2023-04-26T19:15:16.697Z,6.32
2023-04-26T19:17:43.156Z,6.20
2023-04-26T19:20:10.649Z,7.45
2023-04-26T19:22:37.412Z,6.88
2023-04-26T19:25:03.785Z,6.38
2023-04-26T19:27:30.136Z,7.70
2023-04-26T19:29:56.484Z,8.55
2023-04-26T19:32:23.046Z,6.15
2023-04-26T19:34:49.543Z,5.47
2023-04-26T19:37:15.832Z,7.28
2023-04-26T19:39:42.260Z,7.28
2023-04-26T19:42:08.776Z,7.55
2023-04-26T19:44:35.486Z,7.88
2023-04-26T19:47:02.141Z,7.07
2023-04-26T19:49:29.232Z,6.85
2023-04-26T19:51:55.941Z,6.95
2023-04-26T19:54:22.371Z,7.10
2023-04-26T19:56:48.720Z,6.60
2023-04-26T19:59:15.021Z,6.60
2023-04-26T20:01:41.314Z,7.50
2023-04-26T20:04:08.426Z,6.78
2023-04-26T20:06:35.250Z,7.03
2023-04-26T20:09:01.582Z,6.72
2023-04-26T20:11:29.030Z,7.45
2023-04-26T20:13:55.448Z,8.30
2023-04-26T20:16:22.050Z,6.72
2023-04-26T20:18:48.718Z,6.65
2023-04-26T20:21:15.386Z,7.97
2023-04-26T20:23:41.689Z,7.80
2023-04-26T20:26:09.211Z,7.10
2023-04-26T20:28:35.934Z,8.05
2023-04-26T20:31:02.397Z,8.70
2023-04-26T20:33:29.062Z,6.78
2023-04-26T20:35:55.619Z,7.93
2023-04-26T20:38:22.432Z,9.20
2023-04-26T20:40:48.790Z,7.78
2023-04-26T20:43:15.589Z,6.10
2023-04-26T20:45:41.927Z,7.47
2023-04-26T20:48:08.328Z,6.95
2023-04-26T20:50:36.395Z,7.82
2023-04-26T20:53:03.214Z,7.40
2023-04-26T20:55:29.565Z,6.70
2023-04-26T20:57:56.256Z,7.03
2023-04-26T21:00:22.623Z,7.38
2023-04-26T21:02:49.243Z,7.28
2023-04-26T21:05:15.864Z,7.57
2023-04-26T21:07:43.008Z,7.38
2023-04-26T21:10:09.383Z,7.85
2023-04-26T21:12:36.049Z,6.65
2023-04-26T21:15:02.518Z,7.15
2023-04-26T21:17:29.147Z,6.68
2023-04-26T21:19:55.513Z,7.25
2023-04-26T21:22:21.812Z,6.22
2023-04-26T21:24:48.251Z,6.60
2023-04-26T21:27:14.815Z,5.43
2023-04-26T21:29:41.093Z,5.70
2023-04-26T21:32:07.491Z,8.13
2023-04-26T21:34:34.320Z,7.80
2023-04-26T21:37:00.921Z,7.40
2023-04-26T21:39:27.499Z,7.68
2023-04-26T21:41:53.939Z,6.88
2023-04-26T21:44:20.277Z,9.68
2023-04-26T21:46:46.710Z,7.00
2023-04-26T21:49:13.091Z,5.82
2023-04-26T21:51:39.534Z,6.13
2023-04-26T21:54:06.284Z,6.18
2023-04-26T21:56:32.785Z,8.65
2023-04-26T21:59:00.335Z,5.93
2023-04-26T22:01:26.791Z,6.88
2023-04-26T22:03:53.677Z,7.15
2023-04-26T22:06:20.218Z,6.93
2023-04-26T22:08:46.806Z,6.85
2023-04-26T22:11:13.302Z,7.07
2023-04-26T22:13:39.655Z,6.32
2023-04-26T22:16:06.189Z,5.82
2023-04-26T22:18:32.628Z,5.97
2023-04-26T22:20:59.537Z,7.45
2023-04-26T22:23:25.903Z,8.52
2023-04-26T22:25:52.461Z,7.78
2023-04-26T22:28:18.871Z,6.65
2023-04-26T22:30:45.269Z,7.38
2023-04-26T22:33:11.722Z,7.60
2023-04-26T22:35:38.420Z,5.68
2023-04-26T22:38:05.976Z,5.65
2023-04-26T22:40:32.252Z,7.32
2023-04-26T22:42:59.129Z,6.15
2023-04-26T22:45:25.984Z,7.53
2023-04-26T22:47:53.461Z,7.45
2023-04-26T22:50:19.824Z,6.15
2023-04-26T22:52:46.201Z,6.32
2023-04-26T22:55:12.583Z,8.07
2023-04-26T22:57:39.905Z,7.50
2023-04-26T23:00:08.296Z,7.10
2023-04-26T23:02:34.809Z,7.07
2023-04-26T23:05:03.008Z,5.85
2023-04-26T23:07:29.766Z,5.78
2023-04-26T23:09:56.139Z,8.77
2023-04-26T23:12:22.568Z,7.10
2023-04-26T23:14:48.908Z,6.30
2023-04-26T23:17:15.222Z,6.57
2023-04-26T23:19:41.923Z,6.60
2023-04-26T23:22:08.531Z,5.68
2023-04-26T23:24:34.994Z,6.50
2023-04-26T23:27:01.698Z,7.07
2023-04-26T23:29:28.808Z,6.55
2023-04-26T23:31:55.240Z,6.70
2023-04-26T23:34:21.936Z,7.20
2023-04-26T23:36:48.423Z,6.43
2023-04-26T23:39:15.046Z,6.47
2023-04-26T23:41:41.671Z,6.20
2023-04-26T23:44:08.388Z,7.30
2023-04-26T23:46:34.756Z,5.97
2023-04-26T23:49:01.427Z,6.55
2023-04-26T23:51:27.727Z,6.82
2023-04-26T23:53:54.142Z,6.53
2023-04-26T23:56:20.678Z,6.53
2023-04-26T23:58:47.074Z,8.50
